Time;durP1;ratioP1;P1;durP2;ratioP2;P2;SDS_P1;SDS_P2;PMS_P1;PMS_P2;Temp;Humidity;BMP_temperature;BMP_pressure;BME280_temperature;BME280_humidity;BME280_pressure;Samples;Min_cycle;Max_cycle;Signal;HPM_P1;HPM_P2
2022/08/04 00:02:24;;;;;;;11.82;3.60;;;23.70;99.90;;;;;;5072477;28;20036;-60
2022/08/04 00:04:59;;;;;;;11.85;3.70;;;23.60;99.90;;;;;;5072783;28;20477;-60
2022/08/04 00:07:47;;;;;;;12.18;3.97;;;23.60;99.90;;;;;;5071024;28;20067;-60
2022/08/04 00:10:17;;;;;;;8.55;4.03;;;23.60;99.90;;;;;;5072386;28;20052;-60
2022/08/04 00:12:47;;;;;;;11.63;3.90;;;23.80;99.90;;;;;;5072541;28;20031;-60
2022/08/04 00:15:15;;;;;;;11.00;4.38;;;23.90;99.90;;;;;;5072347;28;20029;-60
2022/08/04 00:17:48;;;;;;;11.73;4.30;;;24.00;99.90;;;;;;5072606;28;20036;-60
2022/08/04 00:20:20;;;;;;;15.50;4.32;;;23.90;99.90;;;;;;5072355;28;20115;-60
2022/08/04 00:22:46;;;;;;;;;;;23.80;99.90;;;;;;5072089;28;20036;-60
2022/08/04 00:25:12;;;;;;;13.15;4.20;;;23.80;99.90;;;;;;5072127;28;19916;-60
2022/08/04 00:27:38;;;;;;;10.77;4.50;;;23.80;99.90;;;;;;5072313;28;20029;-60
2022/08/04 00:30:06;;;;;;;10.25;4.55;;;23.70;99.90;;;;;;5070873;28;20406;-61
2022/08/04 00:32:32;;;;;;;9.80;4.95;;;23.70;99.90;;;;;;5071941;28;20036;-60
2022/08/04 00:34:58;;;;;;;13.18;5.00;;;23.70;99.90;;;;;;5071786;28;20511;-60
2022/08/04 00:37:25;;;;;;;14.07;4.72;;;23.70;99.90;;;;;;5071755;28;20036;-60
2022/08/04 00:40:04;;;;;;;11.20;5.10;;;23.70;99.90;;;;;;5071847;28;20043;-60
2022/08/04 00:42:34;;;;;;;13.23;5.03;;;23.70;99.90;;;;;;5070605;28;20082;-60
2022/08/04 00:45:35;;;;;;;10.35;4.70;;;23.70;99.90;;;;;;5071745;28;20108;-61
2022/08/04 00:48:12;;;;;;;10.50;4.85;;;23.60;99.90;;;;;;5062521;28;20040;-60
2022/08/04 00:51:04;;;;;;;10.57;5.13;;;23.50;99.90;;;;;;5071665;28;20066;-60
2022/08/04 00:53:46;;;;;;;12.25;5.15;;;23.40;99.90;;;;;;5071568;28;20121;-60
2022/08/04 00:56:39;;;;;;;9.67;5.53;;;23.30;99.90;;;;;;5071623;28;20085;-60
2022/08/04 00:59:32;;;;;;;15.90;5.03;;;23.30;99.90;;;;;;5071428;28;20412;-61
2022/08/04 01:02:16;;;;;;;10.77;5.15;;;23.20;99.90;;;;;;5071347;28;20032;-61
2022/08/04 01:04:56;;;;;;;13.13;5.32;;;23.20;99.90;;;;;;5071364;28;20035;-61
2022/08/04 01:07:45;;;;;;;13.60;5.30;;;23.20;99.90;;;;;;5069891;28;20037;-60
2022/08/04 01:10:47;;;;;;;11.75;4.72;;;23.20;99.90;;;;;;5071050;28;20021;-60
2022/08/04 01:13:34;;;;;;;12.07;5.47;;;23.00;99.90;;;;;;5071082;28;20103;-59
2022/08/04 01:16:06;;;;;;;12.13;5.13;;;22.90;99.90;;;;;;5071023;28;20036;-60
2022/08/04 01:19:10;;;;;;;10.67;4.97;;;22.90;99.90;;;;;;5071402;28;20070;-60
2022/08/04 01:21:54;;;;;;;14.90;5.88;;;23.00;99.90;;;;;;5071290;28;20067;-60
2022/08/04 01:24:59;;;;;;;11.93;4.90;;;23.00;99.90;;;;;;5071442;28;20028;-59
2022/08/04 01:27:43;;;;;;;7.70;4.72;;;22.90;99.90;;;;;;5071119;28;20033;-60
2022/08/04 01:30:09;;;;;;;10.95;5.13;;;22.90;99.90;;;;;;5071531;28;20107;-60
2022/08/04 01:32:47;;;;;;;11.38;5.05;;;22.80;99.90;;;;;;5070927;28;20115;-60
2022/08/04 01:35:24;;;;;;;10.88;5.38;;;22.80;99.90;;;;;;5071174;28;20024;-60
2022/08/04 01:37:55;;;;;;;12.90;5.75;;;22.80;99.90;;;;;;5071288;28;20020;-59
2022/08/04 01:40:21;;;;;;;13.57;5.88;;;22.80;99.90;;;;;;5070878;28;20095;-59
2022/08/04 01:42:51;;;;;;;10.48;5.03;;;22.60;99.90;;;;;;5070846;28;20120;-59
2022/08/04 01:45:17;;;;;;;9.93;4.97;;;22.60;99.90;;;;;;5071114;28;20024;-60
2022/08/04 01:47:50;;;;;;;10.57;5.47;;;22.50;99.90;;;;;;5070584;28;20082;-59
2022/08/04 01:50:15;;;;;;;10.07;4.82;;;22.40;99.90;;;;;;5070878;28;20016;-59
2022/08/04 01:52:43;;;;;;;11.70;5.28;;;22.30;99.90;;;;;;5070851;28;20035;-60
2022/08/04 01:55:11;;;;;;;7.35;4.50;;;22.30;99.90;;;;;;5070849;28;20028;-60
2022/08/04 01:57:43;;;;;;;8.13;4.40;;;22.30;99.90;;;;;;5070892;28;20063;-59
2022/08/04 02:00:11;;;;;;;13.23;4.57;;;22.30;99.90;;;;;;5070709;28;20123;-61
2022/08/04 02:02:37;;;;;;;9.80;4.05;;;22.30;99.90;;;;;;5070699;28;20028;-60
2022/08/04 02:05:02;;;;;;;10.35;4.13;;;22.30;99.90;;;;;;5070791;28;20366;-61
2022/08/04 02:07:34;;;;;;;7.88;4.18;;;22.40;99.90;;;;;;5070641;28;20036;-60
2022/08/04 02:10:17;;;;;;;12.43;4.40;;;22.30;99.90;;;;;;5070990;28;20046;-61
2022/08/04 02:12:59;;;;;;;;;;;22.30;99.90;;;;;;5069796;28;20024;-60
2022/08/04 02:15:56;;;;;;;10.93;4.28;;;22.30;99.90;;;;;;5070884;28;20376;-61
2022/08/04 02:18:59;;;;;;;11.40;4.18;;;22.30;99.90;;;;;;5070832;28;20033;-61
2022/08/04 02:21:28;;;;;;;10.80;4.93;;;22.30;99.90;;;;;;5070398;28;20165;-60
2022/08/04 02:24:01;;;;;;;9.52;4.55;;;22.30;99.90;;;;;;5070480;28;20025;-60
2022/08/04 02:26:28;;;;;;;12.20;4.50;;;22.20;99.90;;;;;;5070460;28;20028;-61
2022/08/04 02:29:18;;;;;;;10.88;4.07;;;22.20;99.90;;;;;;5071011;28;20473;-60
2022/08/04 02:32:02;;;;;;;9.95;3.92;;;22.20;99.90;;;;;;5070524;28;20067;-61
2022/08/04 02:34:47;;;;;;;9.00;4.68;;;22.20;99.90;;;;;;5070538;28;20020;-60
2022/08/04 02:37:16;;;;;;;10.43;4.20;;;22.20;99.90;;;;;;5070526;28;20044;-61
2022/08/04 02:39:43;;;;;;;9.98;5.05;;;22.10;99.90;;;;;;5070707;28;20024;-60
2022/08/04 02:42:11;;;;;;;8.85;4.10;;;22.10;99.90;;;;;;5070800;28;20104;-61
2022/08/04 02:44:38;;;;;;;7.75;5.00;;;22.10;99.90;;;;;;5070844;28;20040;-61
2022/08/04 02:47:06;;;;;;;12.65;4.80;;;22.00;99.90;;;;;;5072464;28;20033;-62
2022/08/04 02:49:36;;;;;;;8.43;4.40;;;22.00;99.90;;;;;;5074543;28;20017;-61
2022/08/04 02:52:03;;;;;;;10.23;5.03;;;22.00;99.90;;;;;;5074164;28;20095;-61
2022/08/04 02:54:38;;;;;;;9.90;4.70;;;22.00;99.90;;;;;;5074897;28;20016;-60
2022/08/04 02:57:08;;;;;;;9.95;4.55;;;22.00;99.90;;;;;;5073632;28;20020;-60
2022/08/04 03:00:13;;;;;;;8.77;4.75;;;22.00;99.90;;;;;;5073947;28;20505;-59
2022/08/04 03:03:01;;;;;;;7.30;4.20;;;22.00;99.90;;;;;;5072631;28;20079;-60
2022/08/04 03:05:41;;;;;;;10.77;4.10;;;22.00;99.90;;;;;;5073601;28;20497;-60
2022/08/04 03:08:49;;;;;;;14.30;5.15;;;21.90;99.90;;;;;;5073982;28;20090;-60
2022/08/04 03:11:39;;;;;;;9.98;4.43;;;22.00;99.90;;;;;;5073564;28;20027;-60
2022/08/04 03:14:48;;;;;;;7.95;4.60;;;21.90;99.90;;;;;;5072084;28;20075;-60
2022/08/04 03:17:38;;;;;;;10.35;4.65;;;21.90;99.90;;;;;;5062834;28;20072;-60
2022/08/04 03:20:10;;;;;;;12.15;5.20;;;21.90;99.90;;;;;;5073584;28;20024;-60
2022/08/04 03:23:06;;;;;;;9.40;5.00;;;21.90;99.90;;;;;;5073252;28;20077;-60
2022/08/04 03:25:53;;;;;;;10.95;4.65;;;21.80;99.90;;;;;;5073456;28;20021;-60
2022/08/04 03:28:37;;;;;;;9.93;5.03;;;21.70;99.90;;;;;;5073361;28;20396;-60
2022/08/04 03:31:33;;;;;;;8.70;4.32;;;21.80;99.90;;;;;;5073072;28;20533;-60
2022/08/04 03:33:59;;;;;;;12.85;4.85;;;21.70;99.90;;;;;;5073119;28;20016;-60
2022/08/04 03:36:46;;;;;;;11.80;5.03;;;21.70;99.90;;;;;;5071731;28;20047;-60
2022/08/04 03:39:27;;;;;;;12.63;4.68;;;21.60;99.90;;;;;;5073337;28;20074;-60
2022/08/04 03:42:04;;;;;;;13.23;5.00;;;21.50;99.90;;;;;;5073073;28;20442;-60
2022/08/04 03:44:42;;;;;;;13.65;4.72;;;21.40;99.90;;;;;;5073041;28;20028;-60
2022/08/04 03:47:41;;;;;;;9.85;4.60;;;21.50;99.90;;;;;;5072852;28;20071;-60
2022/08/04 03:50:28;;;;;;;7.70;3.90;;;21.50;99.90;;;;;;5071740;28;20039;-60
2022/08/04 03:53:14;;;;;;;9.23;3.95;;;21.30;99.90;;;;;;5072816;28;20101;-60
2022/08/04 03:55:49;;;;;;;7.72;3.97;;;21.30;99.90;;;;;;5072869;28;20114;-59
2022/08/04 03:58:39;;;;;;;14.38;5.18;;;21.30;99.90;;;;;;5071721;28;20021;-59
2022/08/04 04:01:20;;;;;;;8.52;4.65;;;21.30;99.90;;;;;;5071479;28;20029;-59
2022/08/04 04:04:28;;;;;;;9.23;4.32;;;21.30;99.90;;;;;;5072428;28;20040;-59
2022/08/04 04:07:05;;;;;;;16.05;4.75;;;21.20;99.90;;;;;;5058612;28;20056;-58
2022/08/04 04:09:59;;;;;;;11.98;4.05;;;21.20;99.90;;;;;;5072663;28;20016;-61
2022/08/04 04:12:46;;;;;;;10.40;4.28;;;21.10;99.90;;;;;;5071162;28;20036;-60
2022/08/04 04:15:37;;;;;;;10.90;4.32;;;21.10;99.90;;;;;;5072507;28;20036;-60
2022/08/04 04:18:21;;;;;;;11.65;4.63;;;21.10;99.90;;;;;;5072814;28;20036;-60
2022/08/04 04:20:57;;;;;;;11.23;4.53;;;21.10;99.90;;;;;;5072328;28;20097;-59
2022/08/04 04:23:46;;;;;;;12.35;4.90;;;21.20;99.90;;;;;;5072017;28;20030;-59
2022/08/04 04:26:35;;;;;;;12.60;4.50;;;21.20;99.90;;;;;;5051621;28;20086;-59
2022/08/04 04:29:37;;;;;;;8.95;4.40;;;21.10;99.90;;;;;;5072467;28;20381;-59
2022/08/04 04:32:14;;;;;;;8.35;4.25;;;21.10;99.90;;;;;;5071815;28;20036;-60
2022/08/04 04:35:02;;;;;;;11.07;4.40;;;21.10;99.90;;;;;;5071977;28;20511;-59
2022/08/04 04:37:30;;;;;;;12.00;4.50;;;21.20;99.90;;;;;;5070309;28;20119;-59
2022/08/04 04:40:13;;;;;;;9.40;4.65;;;21.20;99.90;;;;;;5071904;28;20024;-59
2022/08/04 04:43:11;;;;;;;10.43;4.90;;;21.20;99.90;;;;;;5071427;28;20036;-60
2022/08/04 04:45:59;;;;;;;13.63;5.00;;;21.20;99.90;;;;;;5037010;28;20039;-59
2022/08/04 04:48:52;;;;;;;15.35;5.10;;;21.20;99.90;;;;;;5071780;28;20155;-60
2022/08/04 04:51:41;;;;;;;9.55;4.70;;;21.20;99.90;;;;;;5070085;28;20086;-59
2022/08/04 04:54:28;;;;;;;12.15;4.85;;;21.10;99.90;;;;;;5071238;28;20029;-59
2022/08/04 04:57:05;;;;;;;10.95;4.78;;;21.00;99.90;;;;;;5071285;28;20028;-59
2022/08/04 04:59:34;;;;;;;8.90;4.85;;;21.10;99.90;;;;;;5071509;28;20044;-61
2022/08/04 05:02:32;;;;;;;12.07;4.25;;;21.10;99.90;;;;;;5071116;28;20040;-60
2022/08/04 05:05:25;;;;;;;13.32;5.20;;;21.00;99.90;;;;;;5071638;28;20469;-60
2022/08/04 05:08:09;;;;;;;16.23;4.82;;;21.00;99.90;;;;;;5071572;28;20031;-60
2022/08/04 05:10:59;;;;;;;11.15;4.22;;;21.10;99.90;;;;;;5071293;28;20028;-60
2022/08/04 05:13:42;;;;;;;8.95;4.10;;;21.10;99.90;;;;;;5071062;28;20047;-60
2022/08/04 05:16:13;;;;;;;;;;;21.00;99.90;;;;;;5071686;28;20509;-60
2022/08/04 05:18:41;;;;;;;19.05;4.55;;;21.10;99.90;;;;;;5071434;28;19912;-60
2022/08/04 05:21:38;;;;;;;11.95;4.68;;;21.00;99.90;;;;;;5070872;28;20033;-60
2022/08/04 05:24:08;;;;;;;15.30;5.00;;;21.10;99.90;;;;;;5071267;28;20064;-60
2022/08/04 05:26:39;;;;;;;9.02;3.83;;;21.10;99.90;;;;;;5069798;28;20035;-59
2022/08/04 05:29:12;;;;;;;12.30;4.32;;;21.20;99.90;;;;;;5071230;28;20024;-59
2022/08/04 05:31:43;;;;;;;15.38;4.53;;;21.20;99.90;;;;;;5070864;28;20028;-61
2022/08/04 05:34:19;;;;;;;13.55;4.45;;;21.20;99.90;;;;;;5070906;28;20067;-60
2022/08/04 05:36:56;;;;;;;17.75;4.90;;;21.20;99.90;;;;;;5069727;28;20032;-59
2022/08/04 05:39:26;;;;;;;16.13;4.85;;;21.40;99.90;;;;;;5071345;28;20541;-59
2022/08/04 05:41:52;;;;;;;12.88;4.72;;;21.30;99.90;;;;;;5069978;28;20082;-60
2022/08/04 05:44:20;;;;;;;11.90;4.53;;;21.40;99.90;;;;;;5070777;28;20516;-60
2022/08/04 05:46:49;;;;;;;12.13;4.38;;;21.50;99.90;;;;;;5069493;28;20127;-60
2022/08/04 05:49:16;;;;;;;15.52;4.72;;;21.60;99.90;;;;;;5071299;28;20024;-61
2022/08/04 05:51:44;;;;;;;14.65;4.65;;;21.60;99.90;;;;;;5069398;28;20032;-60
2022/08/04 05:54:12;;;;;;;15.23;4.60;;;21.70;99.90;;;;;;5070565;28;20120;-60
2022/08/04 05:56:38;;;;;;;13.25;4.75;;;21.90;99.90;;;;;;5070580;28;20118;-60
2022/08/04 05:59:05;;;;;;;9.55;4.20;;;21.90;99.90;;;;;;5070718;28;20508;-60
2022/08/04 06:01:32;;;;;;;16.08;4.78;;;21.80;99.90;;;;;;5069134;28;20032;-60
2022/08/04 06:04:00;;;;;;;12.77;4.60;;;21.80;99.90;;;;;;5069207;28;20078;-59
2022/08/04 06:06:28;;;;;;;13.02;4.53;;;21.80;99.90;;;;;;5070446;28;20079;-59
2022/08/04 06:08:55;;;;;;;7.95;4.30;;;21.80;99.90;;;;;;5070565;28;20078;-58
2022/08/04 06:11:21;;;;;;;11.27;5.03;;;21.80;99.90;;;;;;5070556;28;20070;-58
2022/08/04 06:13:55;;;;;;;13.27;5.03;;;21.90;99.90;;;;;;5070507;28;20032;-58
2022/08/04 06:16:23;;;;;;;11.93;5.15;;;22.00;99.90;;;;;;5070456;28;20116;-58
2022/08/04 06:18:52;;;;;;;14.90;5.35;;;21.90;99.90;;;;;;5070849;28;20397;-58
2022/08/04 06:21:25;;;;;;;13.63;5.60;;;21.90;99.90;;;;;;5071028;28;20046;-58
2022/08/04 06:23:53;;;;;;;10.43;5.22;;;22.00;99.90;;;;;;5074332;28;20028;-58
2022/08/04 06:26:19;;;;;;;10.40;5.47;;;22.10;99.90;;;;;;5074299;28;20052;-58
2022/08/04 06:28:49;;;;;;;13.30;5.80;;;22.00;99.90;;;;;;5074360;28;20516;-60
2022/08/04 06:31:30;;;;;;;10.25;5.60;;;22.10;99.90;;;;;;5072839;28;20020;-59
2022/08/04 06:34:01;;;;;;;20.38;5.70;;;22.20;99.90;;;;;;5080265;28;20016;-61
2022/08/04 06:36:29;;;;;;;10.57;5.88;;;22.40;99.90;;;;;;5079456;28;20556;-60
2022/08/04 06:38:57;;;;;;;11.95;6.60;;;22.70;99.90;;;;;;5074375;28;20402;-60
2022/08/04 06:41:23;;;;;;;14.00;5.85;;;22.70;99.90;;;;;;5084649;28;20039;-60
2022/08/04 06:43:50;;;;;;;12.27;6.10;;;22.80;99.90;;;;;;5093060;28;20058;-60
2022/08/04 06:46:17;;;;;;;11.98;5.85;;;22.90;99.90;;;;;;5088682;28;20059;-60
2022/08/04 06:48:44;;;;;;;12.15;6.50;;;23.00;99.90;;;;;;5074327;28;20036;-60
2022/08/04 06:51:11;;;;;;;12.75;6.05;;;23.10;99.90;;;;;;5074034;28;20613;-60
2022/08/04 06:53:37;;;;;;;12.25;6.38;;;23.20;99.90;;;;;;5073659;28;20489;-60
2022/08/04 06:56:03;;;;;;;12.32;6.25;;;23.30;99.90;;;;;;5083157;28;20031;-60
2022/08/04 06:58:32;;;;;;;13.38;6.50;;;23.60;99.90;;;;;;5093957;28;20036;-60
2022/08/04 07:01:00;;;;;;;12.38;6.88;;;23.60;99.90;;;;;;5093766;28;20500;-60
2022/08/04 07:03:27;;;;;;;12.60;6.70;;;23.50;99.90;;;;;;5075957;28;20024;-60
2022/08/04 07:05:53;;;;;;;11.80;7.35;;;23.60;99.90;;;;;;5084960;28;20527;-61
2022/08/04 07:08:20;;;;;;;15.50;7.43;;;23.60;99.90;;;;;;5073902;28;20467;-60
2022/08/04 07:10:46;;;;;;;11.35;7.78;;;23.30;99.90;;;;;;5073727;28;20060;-59
2022/08/04 07:13:13;;;;;;;16.08;8.73;;;23.20;99.90;;;;;;5072345;28;20025;-59
2022/08/04 07:15:44;;;;;;;12.95;8.35;;;23.30;99.90;;;;;;5090964;28;20035;-59
2022/08/04 07:18:09;;;;;;;15.60;8.88;;;23.30;99.90;;;;;;5074000;28;20107;-59
2022/08/04 07:20:38;;;;;;;13.57;8.75;;;23.20;99.90;;;;;;5073631;28;20112;-60
2022/08/04 07:23:04;;;;;;;15.52;9.75;;;23.30;99.90;;;;;;5073348;28;20115;-60
2022/08/04 07:25:31;;;;;;;17.85;12.00;;;23.20;99.90;;;;;;5089848;28;20437;-60
2022/08/04 07:27:57;;;;;;;19.30;12.65;;;23.10;99.90;;;;;;5084571;28;20493;-60
2022/08/04 07:30:24;;;;;;;18.48;13.13;;;23.00;99.90;;;;;;5093464;28;20081;-60
2022/08/04 07:32:50;;;;;;;19.27;14.40;;;23.10;99.90;;;;;;5093231;28;20032;-60
2022/08/04 07:35:17;;;;;;;23.42;16.40;;;23.10;99.90;;;;;;5093026;28;20024;-60
2022/08/04 07:37:43;;;;;;;26.13;18.65;;;22.90;99.90;;;;;;5092840;28;20039;-61
2022/08/04 07:40:09;;;;;;;26.85;18.67;;;23.00;99.90;;;;;;5094032;28;20032;-60
2022/08/04 07:42:34;;;;;;;23.60;18.60;;;22.80;99.90;;;;;;5093186;28;20477;-60
2022/08/04 07:45:00;;;;;;;24.52;18.65;;;22.50;99.90;;;;;;5089911;28;20039;-60
2022/08/04 07:47:26;;;;;;;26.02;18.25;;;22.40;99.90;;;;;;5072990;28;20021;-60
2022/08/04 07:49:52;;;;;;;28.25;19.63;;;22.40;99.90;;;;;;5074479;28;20358;-60
2022/08/04 07:52:19;;;;;;;30.50;20.55;;;21.90;99.90;;;;;;5073270;28;20036;-60
2022/08/04 07:54:46;;;;;;;34.83;22.20;;;21.50;99.90;;;;;;5073300;28;20073;-60
2022/08/04 07:57:11;;;;;;;30.77;19.05;;;21.50;99.90;;;;;;5072920;28;20508;-59
2022/08/04 07:59:37;;;;;;;32.03;19.40;;;21.40;99.90;;;;;;5072798;28;20056;-59
2022/08/04 08:02:03;;;;;;;33.83;20.02;;;21.40;99.90;;;;;;5073671;28;20102;-60
2022/08/04 08:04:29;;;;;;;28.58;18.52;;;21.50;99.90;;;;;;5073822;28;20025;-60
2022/08/04 08:06:57;;;;;;;30.98;20.42;;;21.50;99.90;;;;;;5072917;28;20485;-60
2022/08/04 08:09:22;;;;;;;32.58;20.13;;;21.50;99.90;;;;;;5073029;28;20028;-60
2022/08/04 08:11:50;;;;;;;37.58;21.15;;;21.50;99.90;;;;;;5086980;28;20481;-60
2022/08/04 08:14:17;;;;;;;32.92;20.15;;;21.30;99.90;;;;;;5073957;28;20055;-59
2022/08/04 08:16:43;;;;;;;32.60;21.92;;;21.20;99.90;;;;;;5072484;28;20021;-59
2022/08/04 08:19:09;;;;;;;33.35;20.70;;;21.40;99.90;;;;;;5074058;28;20482;-59
2022/08/04 08:21:34;;;;;;;31.73;20.92;;;21.60;99.90;;;;;;5092335;28;20032;-60
2022/08/04 08:24:00;;;;;;;25.88;19.08;;;21.70;99.90;;;;;;5078335;28;20028;-60
2022/08/04 08:26:26;;;;;;;29.83;20.77;;;21.60;99.90;;;;;;5073150;28;20107;-59
2022/08/04 08:28:53;;;;;;;34.55;21.73;;;21.40;99.90;;;;;;5078010;28;20020;-59
2022/08/04 08:31:19;;;;;;;31.95;21.33;;;21.50;99.90;;;;;;5092481;28;20032;-61
2022/08/04 08:33:45;;;;;;;32.38;21.30;;;21.50;99.90;;;;;;5091301;28;20084;-59
2022/08/04 08:36:47;;;;;;;29.48;21.23;;;21.70;99.90;;;;;;5092510;28;20038;-59
2022/08/04 08:39:31;;;;;;;27.83;20.90;;;21.70;99.90;;;;;;5071082;28;20127;-58
2022/08/04 08:42:18;;;;;;;28.02;20.17;;;21.60;99.90;;;;;;5089932;28;20082;-59
2022/08/04 08:45:09;;;;;;;31.98;21.08;;;21.50;99.90;;;;;;5091681;28;20504;-59
2022/08/04 08:47:59;;;;;;;35.30;21.40;;;21.40;99.90;;;;;;5090545;28;20056;-59
2022/08/04 08:50:34;;;;;;;30.02;21.65;;;21.50;99.90;;;;;;5085815;28;20031;-59
2022/08/04 08:53:17;;;;;;;38.08;22.65;;;21.50;99.90;;;;;;5072453;28;20032;-59
2022/08/04 08:56:01;;;;;;;32.72;22.75;;;21.80;99.90;;;;;;5071985;28;20036;-59
2022/08/04 08:58:48;;;;;;;33.13;23.75;;;21.70;99.90;;;;;;5071751;28;20066;-59
2022/08/04 09:01:41;;;;;;;33.42;22.17;;;21.80;99.90;;;;;;5084430;28;20043;-59
2022/08/04 09:04:43;;;;;;;30.80;21.60;;;21.80;99.90;;;;;;5089990;28;20170;-59
2022/08/04 09:07:26;;;;;;;30.25;21.98;;;21.60;99.90;;;;;;5071747;28;20520;-57
2022/08/04 09:09:58;;;;;;;30.30;22.13;;;21.70;99.90;;;;;;5072684;28;20500;-59
2022/08/04 09:12:53;;;;;;;29.98;20.85;;;21.80;99.90;;;;;;5089134;28;20035;-59
2022/08/04 09:15:57;;;;;;;27.35;20.98;;;21.90;99.90;;;;;;5086801;28;20118;-60
2022/08/04 09:18:46;;;;;;;30.52;20.55;;;21.80;99.90;;;;;;5071897;28;20043;-59
2022/08/04 09:21:33;;;;;;;30.67;22.13;;;21.60;99.90;;;;;;5091188;28;20499;-60
2022/08/04 09:23:58;;;;;;;29.10;21.38;;;21.70;99.90;;;;;;5091912;28;20063;-60
2022/08/04 09:26:31;;;;;;;31.85;21.90;;;21.60;99.90;;;;;;5091525;28;20067;-60
2022/08/04 09:29:09;;;;;;;32.80;21.52;;;21.40;99.90;;;;;;5091208;28;20020;-60
2022/08/04 09:31:52;;;;;;;30.13;21.10;;;21.50;99.90;;;;;;5091458;28;20024;-60
2022/08/04 09:34:26;;;;;;;28.67;21.25;;;21.50;99.90;;;;;;5091719;28;20039;-60
2022/08/04 09:37:21;;;;;;;26.83;20.10;;;21.70;99.90;;;;;;5092018;28;20055;-60
2022/08/04 09:40:03;;;;;;;31.27;21.50;;;21.90;99.90;;;;;;5079327;28;20051;-60
2022/08/04 09:42:36;;;;;;;29.52;21.13;;;22.20;99.90;;;;;;5073612;28;20028;-60
2022/08/04 09:45:22;;;;;;;30.65;20.15;;;22.30;99.90;;;;;;5087339;28;20095;-60
2022/08/04 09:47:53;;;;;;;26.02;19.02;;;22.50;99.90;;;;;;5091161;28;20039;-60
2022/08/04 09:50:36;;;;;;;29.07;19.27;;;22.80;99.90;;;;;;5090552;28;20072;-59
2022/08/04 09:53:43;;;;;;;25.13;17.33;;;23.10;99.90;;;;;;5081961;28;20499;-59
2022/08/04 09:56:22;;;;;;;25.45;16.23;;;23.70;99.90;;;;;;5091451;28;20029;-59
2022/08/04 09:59:16;;;;;;;20.10;15.52;;;24.80;99.90;;;;;;5089175;28;20101;-58
2022/08/04 10:01:43;;;;;;;19.55;14.82;;;26.00;99.90;;;;;;5082802;28;20529;-59
2022/08/04 10:04:13;;;;;;;15.35;12.82;;;26.80;99.90;;;;;;5085042;28;20037;-59
2022/08/04 10:06:48;;;;;;;14.18;12.68;;;26.70;99.90;;;;;;5091226;28;20396;-59
2022/08/04 10:09:23;;;;;;;16.35;12.60;;;27.00;99.90;;;;;;5092065;28;20027;-59
2022/08/04 10:12:08;;;;;;;15.52;12.60;;;27.30;99.90;;;;;;5074884;28;20021;-59
2022/08/04 10:15:07;;;;;;;14.98;11.98;;;27.80;99.90;;;;;;5084672;28;20020;-60
2022/08/04 10:18:11;;;;;;;15.38;12.00;;;28.20;99.90;;;;;;5087108;28;20043;-60
2022/08/04 10:20:55;;;;;;;12.57;11.25;;;28.50;99.90;;;;;;5063253;28;20033;-60
2022/08/04 10:24:06;;;;;;;12.48;11.10;;;28.50;99.90;;;;;;5070122;28;20055;-61
2022/08/04 10:26:46;;;;;;;13.50;10.73;;;28.00;99.90;;;;;;5053291;28;20063;-61
2022/08/04 10:29:23;;;;;;;13.93;10.52;;;28.60;99.90;;;;;;5075559;28;20051;-61
2022/08/04 10:32:25;;;;;;;12.35;9.90;;;29.40;99.90;;;;;;5091603;28;20030;-61
2022/08/04 10:35:10;;;;;;;10.02;9.02;;;30.10;99.90;;;;;;5094849;28;20099;-61
2022/08/04 10:38:03;;;;;;;12.05;9.57;;;30.10;99.90;;;;;;5094490;28;20040;-61
2022/08/04 10:40:37;;;;;;;13.70;9.20;;;29.40;99.90;;;;;;5093410;28;20036;-61
2022/08/04 10:43:21;;;;;;;11.65;8.68;;;29.50;99.90;;;;;;5094332;28;20032;-61
2022/08/04 10:45:55;;;;;;;10.20;8.80;;;29.10;99.90;;;;;;5094508;28;20385;-61
2022/08/04 10:48:27;;;;;;;9.65;8.63;;;28.50;99.90;;;;;;5077161;28;20020;-61
2022/08/04 10:51:02;;;;;;;;;;;27.60;99.90;;;;;;5085947;28;20109;-61
2022/08/04 10:53:29;;;;;;;15.10;9.77;;;27.50;99.90;;;;;;5089298;28;19954;-61
2022/08/04 10:56:08;;;;;;;12.77;10.07;;;28.10;99.90;;;;;;5094063;28;20023;-62
2022/08/04 10:58:56;;;;;;;15.48;10.65;;;28.90;99.90;;;;;;5075890;28;20075;-62
2022/08/04 11:01:26;;;;;;;12.20;9.27;;;29.70;99.90;;;;;;5073838;28;20160;-62
2022/08/04 11:03:59;;;;;;;13.85;9.60;;;30.90;99.90;;;;;;5073905;28;20031;-61
2022/08/04 11:06:25;;;;;;;12.80;8.63;;;31.30;99.90;;;;;;5073629;28;20037;-61
2022/08/04 11:08:54;;;;;;;10.70;8.45;;;32.40;99.90;;;;;;5073378;28;20536;-61
2022/08/04 11:11:36;;;;;;;11.65;7.63;;;32.30;99.90;;;;;;5082625;28;20429;-62
2022/08/04 11:14:04;;;;;;;10.60;7.72;;;33.60;99.90;;;;;;5093820;28;20024;-61
2022/08/04 11:16:41;;;;;;;16.45;9.00;;;33.80;99.50;;;;;;5091005;28;20043;-62
2022/08/04 11:19:29;;;;;;;11.75;10.02;;;33.80;99.50;;;;;;5074257;28;20029;-62
2022/08/04 11:22:04;;;;;;;12.60;9.07;;;33.80;99.00;;;;;;5073530;28;20032;-62
2022/08/04 11:24:42;;;;;;;14.45;8.85;;;33.70;98.90;;;;;;5073404;28;20021;-62
2022/08/04 11:27:27;;;;;;;13.88;10.57;;;34.00;98.60;;;;;;5078282;28;20020;-62
2022/08/04 11:30:06;;;;;;;14.13;10.13;;;33.00;99.90;;;;;;5093292;28;20035;-62
2022/08/04 11:33:01;;;;;;;14.32;11.27;;;32.40;99.90;;;;;;5093045;28;20028;-62
2022/08/04 11:35:33;;;;;;;14.68;11.60;;;31.40;99.90;;;;;;5092535;28;20024;-62
2022/08/04 11:38:18;;;;;;;15.85;10.43;;;31.00;99.90;;;;;;5093021;28;20422;-62
2022/08/04 11:40:49;;;;;;;13.02;8.48;;;31.70;99.90;;;;;;5083766;28;20056;-62
2022/08/04 11:43:41;;;;;;;13.38;8.40;;;31.90;99.90;;;;;;5072957;28;20409;-62
2022/08/04 11:46:12;;;;;;;10.82;8.68;;;32.20;99.90;;;;;;5073244;28;20028;-62
2022/08/04 11:48:51;;;;;;;12.67;8.60;;;31.30;99.90;;;;;;5077981;28;20033;-62
2022/08/04 11:51:18;;;;;;;12.38;8.57;;;31.00;99.90;;;;;;5077024;28;20028;-62
2022/08/04 11:53:44;;;;;;;10.70;8.02;;;30.60;99.90;;;;;;5083442;28;20504;-62
2022/08/04 11:56:13;;;;;;;9.85;8.25;;;29.90;99.90;;;;;;5072896;28;20427;-62
2022/08/04 11:58:39;;;;;;;13.77;7.72;;;29.50;99.90;;;;;;5071383;28;20047;-62
2022/08/04 12:01:32;;;;;;;12.50;7.03;;;29.70;99.90;;;;;;5072825;28;20032;-62
2022/08/04 12:04:03;;;;;;;11.30;6.03;;;30.50;99.90;;;;;;5081095;28;20046;-62
2022/08/04 12:06:54;;;;;;;13.88;6.03;;;32.50;99.90;;;;;;5081542;28;20032;-62
2022/08/04 12:09:38;;;;;;;7.03;5.57;;;32.90;99.00;;;;;;5083585;28;20024;-62
2022/08/04 12:12:26;;;;;;;8.32;5.47;;;32.70;99.20;;;;;;5086460;28;20024;-62
2022/08/04 12:15:22;;;;;;;7.30;5.70;;;32.80;99.70;;;;;;5092541;28;20436;-62
2022/08/04 12:18:02;;;;;;;7.70;5.40;;;32.60;99.60;;;;;;5092806;28;20229;-62
2022/08/04 12:20:31;;;;;;;8.85;6.40;;;32.70;99.20;;;;;;5090344;28;20039;-62
2022/08/04 12:22:57;;;;;;;7.40;5.75;;;32.30;99.50;;;;;;5092847;28;20032;-62
2022/08/04 12:25:39;;;;;;;6.97;6.18;;;31.90;99.90;;;;;;5092544;28;20051;-62
2022/08/04 12:28:14;;;;;;;8.18;5.80;;;31.30;99.90;;;;;;5093010;28;20038;-62
2022/08/04 12:30:48;;;;;;;8.10;5.38;;;31.30;99.90;;;;;;5092424;28;20024;-62
2022/08/04 12:33:43;;;;;;;8.20;5.20;;;32.30;99.90;;;;;;5090886;28;20024;-62
2022/08/04 12:36:42;;;;;;;9.38;7.00;;;33.50;99.20;;;;;;5092146;28;20074;-62
2022/08/04 12:39:17;;;;;;;5.55;4.85;;;34.50;96.10;;;;;;5091300;28;20035;-62
2022/08/04 12:42:12;;;;;;;8.55;5.75;;;33.90;96.70;;;;;;5092779;28;20039;-62
2022/08/04 12:44:41;;;;;;;9.43;6.13;;;34.90;95.90;;;;;;5092031;28;20527;-62
2022/08/04 12:47:13;;;;;;;9.80;5.50;;;33.90;96.90;;;;;;5091910;28;20024;-62
2022/08/04 12:49:41;;;;;;;;;;;34.00;96.50;;;;;;5092715;28;20025;-62
2022/08/04 12:52:13;;;;;;;6.22;4.45;;;34.10;96.50;;;;;;5091895;28;19912;-63
2022/08/04 12:54:42;;;;;;;9.38;5.25;;;33.50;96.40;;;;;;5092036;28;20070;-63
2022/08/04 12:57:10;;;;;;;10.35;4.32;;;32.60;97.90;;;;;;5092081;28;20092;-62
2022/08/04 12:59:42;;;;;;;8.63;4.85;;;32.90;97.50;;;;;;5091920;28;20044;-60
2022/08/04 13:02:22;;;;;;;7.20;4.00;;;33.50;97.00;;;;;;5092040;28;20032;-60
2022/08/04 13:04:49;;;;;;;5.95;4.10;;;33.30;97.00;;;;;;5091855;28;20488;-60
2022/08/04 13:07:22;;;;;;;5.15;3.92;;;32.80;96.90;;;;;;5090723;28;20032;-60
2022/08/04 13:09:48;;;;;;;7.30;3.60;;;33.00;96.70;;;;;;5092023;28;20481;-62
2022/08/04 13:12:21;;;;;;;9.43;3.92;;;33.70;95.90;;;;;;5091808;28;20536;-62
2022/08/04 13:14:51;;;;;;;7.20;3.35;;;34.10;95.40;;;;;;5091931;28;20376;-61
2022/08/04 13:17:18;;;;;;;2.75;1.90;;;35.50;93.30;;;;;;5092102;28;20469;-62
2022/08/04 13:19:55;;;;;;;5.60;2.38;;;36.40;91.00;;;;;;5091776;28;20020;-64
2022/08/04 13:22:28;;;;;;;7.65;3.28;;;35.90;90.00;;;;;;5091424;28;20027;-63
2022/08/04 13:24:59;;;;;;;4.65;2.10;;;35.00;90.90;;;;;;5090224;28;20024;-62
2022/08/04 13:27:25;;;;;;;3.97;2.10;;;34.00;91.50;;;;;;5091509;28;20477;-62
2022/08/04 13:29:55;;;;;;;5.60;2.40;;;34.30;91.90;;;;;;5091474;28;20111;-62